createdAt,value
2022-09-01T00:00:13.478Z,18.24
2022-09-01T00:02:44.097Z,18.25
2022-09-01T00:05:14.592Z,18.24
2022-09-01T00:07:41.636Z,18.27
2022-09-01T00:10:09.886Z,18.29
2022-09-01T00:12:38.662Z,18.23
2022-09-01T00:15:09.475Z,18.19
2022-09-01T00:17:36.949Z,18.10
2022-09-01T00:20:05.625Z,17.99
2022-09-01T00:22:33.719Z,18.06
2022-09-01T00:25:02.097Z,18.02
2022-09-01T00:27:32.424Z,18.18
2022-09-01T00:30:00.505Z,18.03
2022-09-01T00:32:28.637Z,18.09
2022-09-01T00:34:57.589Z,17.96
2022-09-01T00:37:24.801Z,18.07
2022-09-01T00:39:53.737Z,18.23
2022-09-01T00:42:20.876Z,18.20
2022-09-01T00:44:50.688Z,18.20
2022-09-01T00:47:17.741Z,18.31
2022-09-01T00:49:49.777Z,18.17
2022-09-01T00:52:23.524Z,18.16
2022-09-01T00:54:58.334Z,18.16
2022-09-01T00:57:26.490Z,18.20
2022-09-01T01:00:03.469Z,18.11
2022-09-01T01:02:30.389Z,17.87
2022-09-01T01:05:00.604Z,17.80
2022-09-01T01:07:30.816Z,18.02
2022-09-01T01:10:03.492Z,17.78
2022-09-01T01:12:40.393Z,17.87
2022-09-01T01:15:11.167Z,17.90
2022-09-01T01:17:40.887Z,17.62
2022-09-01T01:20:34.127Z,17.72
2022-09-01T01:23:16.225Z,17.87
2022-09-01T01:25:49.227Z,17.95
2022-09-01T01:28:31.092Z,17.82
2022-09-01T01:31:06.216Z,17.69
2022-09-01T01:33:41.754Z,17.68
2022-09-01T01:36:16.453Z,17.74
2022-09-01T01:38:49.222Z,17.78
2022-09-01T01:41:19.854Z,17.83
2022-09-01T01:43:51.144Z,17.85
2022-09-01T01:46:19.276Z,17.87
2022-09-01T01:48:47.624Z,17.81
2022-09-01T01:51:26.788Z,17.75
2022-09-01T01:53:55.350Z,17.51
2022-09-01T01:56:25.741Z,17.63
2022-09-01T01:58:56.207Z,17.58
2022-09-01T02:01:25.897Z,17.67
2022-09-01T02:03:56.409Z,17.68
2022-09-01T02:06:28.206Z,17.78
2022-09-01T02:08:58.336Z,17.81
2022-09-01T02:11:26.516Z,17.80
2022-09-01T02:13:57.446Z,17.68
2022-09-01T02:16:27.344Z,17.67
2022-09-01T02:18:55.050Z,17.87
2022-09-01T02:21:27.711Z,17.78
2022-09-01T02:24:02.246Z,17.82
2022-09-01T02:26:40.645Z,17.72
2022-09-01T02:29:18.203Z,17.65
2022-09-01T02:31:52.024Z,17.69
2022-09-01T02:34:24.122Z,17.62
2022-09-01T02:36:53.744Z,17.77
2022-09-01T02:39:27.453Z,17.61
2022-09-01T02:41:54.956Z,17.62
2022-09-01T02:44:24.559Z,17.69
2022-09-01T02:46:51.507Z,17.54
2022-09-01T02:49:28.358Z,17.42
2022-09-01T02:52:01.712Z,17.28
2022-09-01T02:54:31.953Z,17.35
2022-09-01T02:57:02.465Z,17.24
2022-09-01T02:59:32.266Z,17.23
2022-09-01T03:02:02.627Z,17.35
2022-09-01T03:04:33.951Z,17.24
2022-09-01T03:07:03.657Z,17.19
2022-09-01T03:09:34.378Z,17.08
2022-09-01T03:12:01.710Z,17.00
2022-09-01T03:14:30.105Z,17.00
2022-09-01T03:17:00.710Z,16.91
2022-09-01T03:19:44.388Z,16.76
2022-09-01T03:22:11.752Z,16.80
2022-09-01T03:24:41.278Z,16.76
2022-09-01T03:27:11.727Z,16.74
2022-09-01T03:29:41.284Z,16.69
2022-09-01T03:32:08.329Z,16.70
2022-09-01T03:34:39.613Z,16.71
2022-09-01T03:37:08.049Z,16.64
2022-09-01T03:39:35.429Z,16.69
2022-09-01T03:42:02.576Z,16.63
2022-09-01T03:44:35.457Z,16.58
2022-09-01T03:47:10.552Z,16.58
2022-09-01T03:49:39.430Z,16.52
2022-09-01T03:52:09.006Z,16.50
2022-09-01T03:54:36.742Z,16.51
2022-09-01T03:57:10.186Z,16.15
2022-09-01T03:59:43.352Z,16.18
2022-09-01T04:02:15.145Z,16.20
2022-09-01T04:04:42.109Z,16.20
2022-09-01T04:07:08.994Z,16.28
2022-09-01T04:09:40.343Z,16.19
2022-09-01T04:12:09.004Z,16.22
2022-09-01T04:14:40.465Z,16.13
2022-09-01T04:17:30.550Z,16.15
2022-09-01T04:19:57.994Z,16.16
2022-09-01T04:22:29.225Z,16.33
2022-09-01T04:24:56.214Z,16.18
2022-09-01T04:27:24.631Z,16.15
2022-09-01T04:29:57.092Z,16.29
2022-09-01T04:32:25.799Z,16.06
2022-09-01T04:34:52.657Z,15.98
2022-09-01T04:37:21.978Z,16.03
2022-09-01T04:39:57.545Z,16.02
2022-09-01T04:42:32.407Z,16.06
2022-09-01T04:45:10.334Z,15.83
2022-09-01T04:47:41.883Z,15.86
2022-09-01T04:50:17.175Z,15.93
2022-09-01T04:52:47.887Z,15.92
2022-09-01T04:55:18.252Z,15.98
2022-09-01T04:57:49.160Z,15.90
2022-09-01T05:00:24.244Z,15.98
2022-09-01T05:03:04.420Z,16.08
2022-09-01T05:05:44.450Z,16.08
2022-09-01T05:08:23.165Z,16.18
2022-09-01T05:10:56.719Z,16.36
2022-09-01T05:13:29.610Z,16.50
2022-09-01T05:16:12.939Z,16.29
2022-09-01T05:18:48.895Z,16.43
2022-09-01T05:21:22.096Z,16.59
2022-09-01T05:23:55.314Z,16.58
2022-09-01T05:26:26.515Z,16.77
2022-09-01T05:28:58.534Z,16.71
2022-09-01T05:31:28.565Z,16.68
2022-09-01T05:33:58.075Z,16.71
2022-09-01T05:36:25.735Z,16.91
2022-09-01T05:38:57.022Z,16.75
2022-09-01T05:41:27.488Z,16.95
2022-09-01T05:44:00.505Z,16.93
2022-09-01T05:46:28.440Z,16.97
2022-09-01T05:48:57.007Z,17.20
2022-09-01T05:51:44.209Z,17.21
2022-09-01T05:54:13.980Z,16.88
2022-09-01T05:56:44.142Z,17.13
2022-09-01T05:59:23.331Z,17.35
2022-09-01T06:01:54.957Z,17.37
2022-09-01T06:04:25.486Z,17.38
2022-09-01T06:07:06.592Z,17.66
2022-09-01T06:09:42.819Z,17.52
2022-09-01T06:12:23.120Z,17.41
2022-09-01T06:14:55.647Z,17.72
2022-09-01T06:17:25.996Z,17.74
2022-09-01T06:19:56.715Z,17.93
2022-09-01T06:22:27.918Z,18.13
2022-09-01T06:25:02.728Z,17.93
2022-09-01T06:27:34.236Z,18.13
2022-09-01T06:30:01.584Z,18.24
2022-09-01T06:32:35.301Z,18.42
2022-09-01T06:35:05.665Z,18.84
2022-09-01T06:37:32.805Z,18.77
2022-09-01T06:40:03.310Z,18.92
2022-09-01T06:42:35.316Z,19.10
2022-09-01T06:45:02.592Z,19.11
2022-09-01T06:47:31.658Z,19.40
2022-09-01T06:49:59.362Z,19.46
2022-09-01T06:52:26.561Z,19.65
2022-09-01T06:54:54.091Z,19.77
2022-09-01T07:00:21.018Z,20.37
2022-09-01T07:02:54.953Z,20.31
2022-09-01T07:08:19.908Z,20.71
2022-09-01T07:14:15.260Z,21.15
2022-09-01T07:16:41.837Z,21.23
2022-09-01T07:19:19.132Z,21.42
2022-09-01T07:24:37.567Z,21.39
2022-09-01T07:27:09.500Z,21.46
2022-09-01T07:29:39.270Z,21.81
2022-09-01T07:34:57.118Z,22.34
2022-09-01T07:43:27.185Z,22.45
2022-09-01T07:45:59.630Z,23.03
2022-09-01T07:49:01.861Z,23.34
2022-09-01T07:51:36.912Z,23.72
2022-09-01T07:54:05.656Z,23.75
2022-09-01T07:56:39.737Z,24.17
2022-09-01T07:59:14.579Z,24.86
2022-09-01T08:01:43.165Z,24.67
2022-09-01T08:04:12.241Z,25.29
2022-09-01T08:06:39.690Z,25.51
2022-09-01T08:09:11.569Z,26.15
2022-09-01T08:14:33.823Z,27.44
2022-09-01T08:19:55.378Z,28.26
2022-09-01T08:22:27.893Z,28.59
2022-09-01T08:24:57.968Z,28.32
2022-09-01T08:27:24.881Z,27.76
2022-09-01T08:29:54.860Z,27.98
2022-09-01T08:32:22.474Z,28.29
2022-09-01T08:34:51.980Z,28.69
2022-09-01T08:37:19.198Z,27.94
2022-09-01T08:39:48.538Z,28.38
2022-09-01T08:42:18.613Z,28.82
2022-09-01T08:45:08.400Z,28.52
2022-09-01T08:47:56.024Z,29.42
2022-09-01T08:50:25.565Z,30.69
2022-09-01T08:53:09.632Z,31.56
2022-09-01T08:55:44.074Z,31.70
2022-09-01T08:58:14.586Z,32.51
2022-09-01T09:00:58.012Z,32.61
2022-09-01T09:04:11.664Z,33.74
2022-09-01T09:07:02.765Z,33.37
2022-09-01T09:09:47.838Z,34.07
2022-09-01T09:13:02.220Z,33.76
2022-09-01T09:15:52.781Z,34.31
2022-09-01T09:18:39.859Z,34.91
2022-09-01T09:21:24.845Z,35.30
2022-09-01T09:24:03.568Z,35.32
2022-09-01T09:26:47.528Z,35.31
2022-09-01T09:29:18.082Z,35.38
2022-09-01T09:31:50.499Z,35.36
2022-09-01T09:34:35.071Z,35.55
2022-09-01T09:37:30.831Z,36.45
2022-09-01T09:40:15.211Z,36.71
2022-09-01T09:43:05.929Z,36.91
2022-09-01T09:45:41.992Z,36.82
2022-09-01T09:48:31.668Z,37.71
2022-09-01T09:51:28.933Z,38.06
2022-09-01T09:54:23.054Z,38.10
2022-09-01T09:57:22.100Z,38.23
2022-09-01T10:00:00.540Z,35.31
2022-09-01T10:02:41.348Z,35.74
2022-09-01T10:05:44.212Z,37.04
2022-09-01T10:08:29.498Z,34.89
2022-09-01T10:11:00.465Z,36.17
2022-09-01T10:13:33.044Z,37.31
2022-09-01T10:16:14.196Z,38.16
2022-09-01T10:18:47.409Z,38.93
2022-09-01T10:21:34.558Z,38.82
2022-09-01T10:24:21.132Z,37.78
2022-09-01T10:26:54.975Z,38.50
2022-09-01T10:29:47.847Z,38.33
2022-09-01T10:32:36.996Z,37.61
2022-09-01T10:35:13.041Z,37.86
2022-09-01T10:37:41.417Z,38.68
2022-09-01T10:40:30.977Z,39.84
2022-09-01T10:43:38.031Z,39.74
2022-09-01T10:46:38.588Z,39.16
2022-09-01T10:49:28.536Z,39.70
2022-09-01T10:52:03.247Z,38.86
2022-09-01T10:54:50.848Z,35.76
2022-09-01T10:57:43.839Z,36.09
2022-09-01T11:00:35.881Z,37.62
2022-09-01T11:03:51.745Z,38.26
2022-09-01T11:07:16.591Z,36.54
2022-09-01T11:10:32.105Z,38.24
2022-09-01T11:13:14.972Z,40.05
2022-09-01T11:15:45.005Z,40.41
2022-09-01T11:18:27.181Z,39.97
2022-09-01T11:21:25.782Z,37.18
2022-09-01T11:25:00.295Z,34.26
2022-09-01T11:27:50.923Z,32.43
2022-09-01T11:30:21.722Z,30.86
2022-09-01T11:32:58.766Z,30.07
2022-09-01T11:35:29.077Z,29.61
2022-09-01T11:38:03.165Z,29.47
2022-09-01T11:40:36.252Z,29.97
2022-09-01T11:43:16.849Z,32.55
2022-09-01T11:46:11.323Z,34.04
2022-09-01T11:48:46.469Z,36.65
2022-09-01T11:51:21.499Z,36.45
2022-09-01T11:53:52.180Z,37.15
2022-09-01T11:56:26.457Z,38.01
2022-09-01T11:58:55.999Z,39.01
2022-09-01T12:01:33.375Z,38.27
2022-09-01T12:04:25.526Z,33.68
2022-09-01T12:07:13.753Z,31.89
2022-09-01T12:09:48.007Z,30.59
2022-09-01T12:12:39.946Z,30.09
2022-09-01T12:15:24.217Z,32.01
2022-09-01T12:17:55.723Z,34.66
2022-09-01T12:20:34.872Z,35.46
2022-09-01T12:23:02.533Z,37.22
2022-09-01T12:25:34.425Z,36.80
2022-09-01T12:28:06.568Z,36.88
2022-09-01T12:30:40.708Z,37.40
2022-09-01T12:33:29.049Z,37.89
2022-09-01T12:36:35.096Z,38.34
2022-09-01T12:39:23.943Z,37.47
2022-09-01T12:42:15.384Z,37.18
2022-09-01T12:44:44.244Z,35.55
2022-09-01T12:47:40.886Z,33.93
2022-09-01T12:50:17.055Z,31.34
2022-09-01T12:52:52.331Z,29.09
2022-09-01T12:55:47.962Z,28.95
2022-09-01T12:58:26.117Z,31.42
2022-09-01T13:01:13.830Z,31.82
2022-09-01T13:04:28.285Z,32.11
2022-09-01T13:07:01.234Z,33.22
2022-09-01T13:09:30.430Z,33.16
2022-09-01T13:12:21.392Z,33.55
2022-09-01T13:14:48.564Z,32.76
2022-09-01T13:17:20.184Z,31.10
2022-09-01T13:19:49.570Z,30.11
2022-09-01T13:22:19.487Z,29.15
2022-09-01T13:24:51.221Z,29.17
2022-09-01T13:27:21.820Z,28.89
2022-09-01T13:29:50.410Z,29.09
2022-09-01T13:32:21.660Z,29.27
2022-09-01T13:34:54.078Z,28.95
2022-09-01T13:37:22.346Z,28.60
2022-09-01T13:39:49.968Z,28.70
2022-09-01T13:42:20.188Z,28.28
2022-09-01T13:44:49.695Z,28.21
2022-09-01T13:47:30.139Z,28.27
2022-09-01T13:50:07.919Z,28.29
2022-09-01T13:52:35.905Z,28.12
2022-09-01T13:55:05.477Z,28.15
2022-09-01T13:57:35.675Z,28.05
2022-09-01T14:00:17.247Z,27.96
2022-09-01T14:02:49.202Z,27.85
2022-09-01T14:05:26.173Z,27.77
2022-09-01T14:07:54.511Z,28.01
2022-09-01T14:10:23.972Z,28.14
2022-09-01T14:12:53.511Z,28.10
2022-09-01T14:15:27.338Z,28.22
2022-09-01T14:17:57.875Z,28.34
2022-09-01T14:20:33.479Z,28.32
2022-09-01T14:23:06.600Z,28.67
2022-09-01T14:25:34.818Z,28.83
2022-09-01T14:28:04.730Z,28.30
2022-09-01T14:30:34.078Z,28.46
2022-09-01T14:33:02.149Z,28.55
2022-09-01T14:35:33.101Z,28.74
2022-09-01T14:38:01.420Z,28.33
2022-09-01T14:40:29.342Z,27.96
2022-09-01T14:42:59.369Z,28.23
2022-09-01T14:45:33.908Z,28.09
2022-09-01T14:48:03.906Z,27.77
2022-09-01T14:50:34.108Z,27.55
2022-09-01T14:53:04.350Z,27.73
2022-09-01T14:55:32.799Z,27.87
2022-09-01T14:58:02.265Z,27.96
2022-09-01T15:00:41.727Z,27.89
2022-09-01T15:03:10.981Z,27.58
2022-09-01T15:05:39.860Z,27.76
2022-09-01T15:08:12.030Z,27.90
2022-09-01T15:10:45.656Z,28.17
2022-09-01T15:13:13.621Z,28.18
2022-09-01T15:15:43.135Z,28.19
2022-09-01T15:18:10.711Z,28.32
2022-09-01T15:20:45.496Z,28.47
2022-09-01T15:23:24.966Z,28.04
2022-09-01T15:25:57.748Z,28.02
2022-09-01T15:28:26.031Z,28.13
2022-09-01T15:31:00.309Z,27.81
2022-09-01T15:33:29.824Z,28.04
2022-09-01T15:35:56.797Z,28.11
2022-09-01T15:38:28.367Z,27.95
2022-09-01T15:41:00.362Z,27.71
2022-09-01T15:43:31.621Z,27.20
2022-09-01T15:46:02.095Z,26.57
2022-09-01T15:48:29.810Z,26.84
2022-09-01T15:51:23.059Z,26.93
2022-09-01T15:53:51.805Z,26.97
2022-09-01T15:56:18.948Z,27.01
2022-09-01T15:59:00.862Z,26.98
2022-09-01T16:01:34.980Z,26.96
2022-09-01T16:04:06.991Z,26.89
2022-09-01T16:06:37.429Z,26.84
2022-09-01T16:09:09.432Z,26.73
2022-09-01T16:11:39.542Z,26.67
2022-09-01T16:14:09.223Z,26.58
2022-09-01T16:17:10.266Z,26.52
2022-09-01T16:19:52.502Z,26.32
2022-09-01T16:22:36.028Z,25.92
2022-09-01T16:25:18.270Z,26.25
2022-09-01T16:27:46.143Z,26.19
2022-09-01T16:30:22.510Z,26.02
2022-09-01T16:32:50.267Z,26.23
2022-09-01T16:35:19.734Z,26.15
2022-09-01T16:38:18.971Z,25.97
2022-09-01T16:41:18.142Z,25.83
2022-09-01T16:44:20.863Z,25.48
2022-09-01T16:47:09.407Z,25.55
2022-09-01T16:49:58.021Z,25.62
2022-09-01T16:52:29.470Z,25.23
2022-09-01T16:55:24.413Z,25.06
2022-09-01T16:58:23.344Z,25.18
2022-09-01T17:01:02.181Z,25.34
2022-09-01T17:04:05.537Z,25.17
2022-09-01T17:06:49.429Z,25.32
2022-09-01T17:09:35.418Z,25.20
2022-09-01T17:12:25.121Z,24.98
2022-09-01T17:15:10.082Z,25.09
2022-09-01T17:17:55.350Z,25.07
2022-09-01T17:20:31.405Z,25.15
2022-09-01T17:23:08.902Z,24.79
2022-09-01T17:26:05.124Z,24.91
2022-09-01T17:28:43.797Z,24.87
2022-09-01T17:31:33.909Z,24.60
2022-09-01T17:34:54.879Z,24.47
2022-09-01T17:37:58.732Z,24.59
2022-09-01T17:40:44.965Z,24.61
2022-09-01T17:43:21.524Z,24.27
2022-09-01T17:46:31.215Z,24.30
2022-09-01T17:49:10.072Z,24.38
2022-09-01T17:51:50.609Z,23.97
2022-09-01T17:54:34.365Z,23.89
2022-09-01T17:57:42.962Z,23.85
2022-09-01T18:00:34.460Z,23.85
2022-09-01T18:03:07.854Z,23.97
2022-09-01T18:05:59.986Z,23.88
2022-09-01T18:08:44.792Z,23.84
2022-09-01T18:11:23.122Z,23.69
2022-09-01T18:14:00.447Z,23.32
2022-09-01T18:16:37.072Z,23.32
2022-09-01T18:19:17.318Z,23.24
2022-09-01T18:21:58.372Z,23.01
2022-09-01T18:24:40.349Z,23.04
2022-09-01T18:27:09.083Z,22.99
2022-09-01T18:29:36.085Z,22.97
2022-09-01T18:32:34.954Z,22.76
2022-09-01T18:35:24.504Z,22.76
2022-09-01T18:38:13.491Z,22.80
2022-09-01T18:41:01.588Z,22.62
2022-09-01T18:43:57.398Z,22.61
2022-09-01T18:46:49.396Z,22.59
2022-09-01T18:49:33.719Z,22.38
2022-09-01T18:52:33.000Z,22.35
2022-09-01T18:55:24.972Z,22.22
2022-09-01T18:58:17.075Z,22.07
2022-09-01T19:01:05.808Z,22.09
2022-09-01T19:04:05.071Z,21.94
2022-09-01T19:07:02.262Z,22.14
2022-09-01T19:09:42.828Z,21.98
2022-09-01T19:12:43.139Z,21.99
2022-09-01T19:15:19.486Z,21.90
2022-09-01T19:18:12.883Z,21.79
2022-09-01T19:21:10.782Z,21.65
2022-09-01T19:23:50.620Z,21.56
2022-09-01T19:26:25.430Z,21.49
2022-09-01T19:29:02.103Z,21.55
2022-09-01T19:32:00.105Z,21.45
2022-09-01T19:34:55.854Z,21.52
2022-09-01T19:37:53.625Z,21.33
2022-09-01T19:40:39.330Z,21.28
2022-09-01T19:43:20.771Z,21.25
2022-09-01T19:46:09.823Z,21.16
2022-09-01T19:48:58.545Z,21.32
2022-09-01T19:51:59.108Z,21.00
2022-09-01T19:55:11.293Z,20.98
2022-09-01T19:57:59.448Z,21.02
2022-09-01T20:00:50.977Z,20.85
2022-09-01T20:03:41.447Z,20.83
2022-09-01T20:06:37.678Z,20.71
2022-09-01T20:09:26.333Z,20.74
2022-09-01T20:12:48.012Z,20.62
2022-09-01T20:15:44.276Z,20.77
2022-09-01T20:18:34.717Z,20.76
2022-09-01T20:21:20.922Z,20.67
2022-09-01T20:24:12.007Z,20.64
2022-09-01T20:26:51.894Z,20.60
2022-09-01T20:29:23.532Z,20.43
2022-09-01T20:31:57.371Z,20.57
2022-09-01T20:34:40.373Z,20.54
2022-09-01T20:37:48.177Z,20.52
2022-09-01T20:40:32.217Z,20.36
2022-09-01T20:43:29.590Z,20.41
2022-09-01T20:45:58.880Z,20.14
2022-09-01T20:48:27.932Z,20.07
2022-09-01T20:51:07.861Z,20.20
2022-09-01T20:53:56.297Z,20.21
2022-09-01T20:56:36.993Z,20.14
2022-09-01T20:59:36.500Z,20.03
2022-09-01T21:02:28.164Z,20.08
2022-09-01T21:05:19.270Z,20.14
2022-09-01T21:07:56.199Z,20.02
2022-09-01T21:10:32.176Z,19.96
2022-09-01T21:13:45.190Z,20.06
2022-09-01T21:16:51.822Z,19.90
2022-09-01T21:19:27.656Z,19.85
2022-09-01T21:22:07.252Z,19.85
2022-09-01T21:24:34.858Z,19.90
2022-09-01T21:27:07.678Z,19.95
2022-09-01T21:30:09.348Z,19.70
2022-09-01T21:32:37.139Z,19.82
2022-09-01T21:35:07.820Z,19.75
2022-09-01T21:37:37.320Z,19.90
2022-09-01T21:40:06.261Z,19.73
2022-09-01T21:42:59.761Z,19.74
2022-09-01T21:45:32.744Z,19.82
2022-09-01T21:48:04.436Z,19.76
2022-09-01T21:50:35.856Z,19.54
2022-09-01T21:53:05.289Z,19.53
2022-09-01T21:55:33.028Z,19.56
2022-09-01T21:57:59.989Z,19.61
2022-09-01T22:00:31.034Z,19.42
2022-09-01T22:02:59.491Z,19.39
2022-09-01T22:05:27.826Z,19.40
2022-09-01T22:07:56.533Z,19.41
2022-09-01T22:10:28.573Z,19.38
2022-09-01T22:12:57.275Z,19.29
2022-09-01T22:15:28.126Z,19.09
2022-09-01T22:17:58.959Z,19.13
2022-09-01T22:20:32.074Z,18.99
2022-09-01T22:23:02.031Z,18.84
2022-09-01T22:25:34.028Z,18.96
2022-09-01T22:28:05.863Z,18.86
2022-09-01T22:30:33.618Z,18.82
2022-09-01T22:33:07.708Z,18.82
2022-09-01T22:35:37.993Z,18.74
2022-09-01T22:38:04.896Z,18.84
2022-09-01T22:40:35.427Z,18.72
2022-09-01T22:43:03.124Z,18.64
2022-09-01T22:45:32.567Z,18.62
2022-09-01T22:47:59.495Z,18.52
2022-09-01T22:50:26.524Z,18.70
2022-09-01T22:52:53.471Z,18.67
2022-09-01T22:55:20.605Z,18.59
2022-09-01T22:57:47.560Z,18.65
2022-09-01T23:00:15.106Z,18.60
2022-09-01T23:02:42.221Z,18.70
2022-09-01T23:05:09.499Z,18.49
2022-09-01T23:07:39.421Z,18.52
2022-09-01T23:10:10.797Z,18.59
2022-09-01T23:12:40.256Z,18.61
2022-09-01T23:15:08.885Z,18.37
2022-09-01T23:17:37.888Z,18.40
2022-09-01T23:20:11.367Z,18.47
2022-09-01T23:22:46.103Z,18.31
2022-09-01T23:25:18.468Z,18.36
2022-09-01T23:27:45.633Z,18.13
2022-09-01T23:30:14.789Z,18.10
2022-09-01T23:32:44.001Z,18.12
2022-09-01T23:35:11.933Z,18.10
2022-09-01T23:37:38.999Z,17.99
2022-09-01T23:40:07.939Z,18.04
2022-09-01T23:42:41.426Z,18.03
2022-09-01T23:45:11.447Z,18.00
2022-09-01T23:47:38.526Z,18.11
2022-09-01T23:50:06.976Z,18.04
2022-09-01T23:52:37.163Z,17.98
2022-09-01T23:55:07.956Z,17.92
2022-09-01T23:57:38.259Z,17.90
